Latest Weather Observations for Cressy

IDT60801

Issued at 4:31 pm EST Monday 31 August 2015 (issued every 30 minutes, with the page automatically refreshed every 10 minutes)

About weather observations | Map of weather stations | Latest weather observations for TAS | Other Formats
Station Details ID: 091306 Name: CRESSY RESEARCH STATION Lat: -41.73 Lon: 147.08 Height: 148.0 m
Data from the previous 72 hours. | See also: Recent months at Cressy
Date/Time
EST
Temp
°C
App
Temp
°C
Dew
Point
Rel
Hum
%
Delta-T
°C
Wind Press
QNH
hPa
Press
MSL
hPa
Rain
since 9 am
mm
Dir
 
Spd
km/h
Gust
km/h
Spd
kts
Gust
kts
31/04:30pm 11.6 6.6 3.6 58 3.6 ESE 19 26 10 14 - - 0.0
31/04:00pm 11.8 6.8 3.6 57 3.7 ESE 19 28 10 15 - - 0.0
31/03:30pm 11.9 6.6 3.2 55 3.9 ESE 20 26 11 14 - - 0.0
31/03:00pm 12.2 7.1 4.2 58 3.6 ESE 20 30 11 16 - - 0.0
31/02:30pm 11.9 8.4 3.7 57 3.7 ESE 11 17 6 9 - - 0.0
31/02:00pm 11.8 7.1 3.1 55 3.9 ESE 17 26 9 14 - - 0.0
31/01:30pm 11.5 6.2 2.8 55 3.8 ESE 20 28 11 15 - - 0.0
31/01:00pm 11.2 5.3 2.0 53 4.0 ESE 22 32 12 17 - - 0.0
31/12:30pm 11.2 5.8 2.5 55 3.8 SE 20 32 11 17 - - 0.0
31/12:00pm 10.7 4.1 1.8 54 3.8 ESE 26 35 14 19 - - 0.0
31/11:30am 10.8 4.5 3.6 61 3.2 ESE 26 35 14 19 - - 0.0
31/11:00am 10.5 4.5 3.1 60 3.2 SE 24 32 13 17 - - 0.0
31/10:30am 9.5 3.0 2.8 63 2.9 SE 26 37 14 20 - - 0.0
31/10:00am 9.2 2.5 3.4 67 2.5 ESE 28 35 15 19 - - 0.0
31/09:30am 9.3 4.3 4.7 73 2.1 SE 20 26 11 14 - - 0.0
31/09:00am 7.9 2.8 3.2 72 2.0 ESE 19 28 10 15 - - 0.0
31/08:30am 7.3 3.8 3.5 77 1.6 ESE 11 20 6 11 - - 0.0
31/08:00am 5.5 2.6 2.7 82 1.2 NNE 7 11 4 6 - - 0.0
31/07:30am 2.7 -0.4 1.1 89 0.6 SSW 7 9 4 5 - - 0.0
31/07:00am 2.2 -2.1 1.0 92 0.5 SE 13 13 7 7 - - 0.0
31/06:30am 2.1 -1.9 0.6 90 0.6 ESE 11 13 6 7 - - 0.0
31/06:00am 2.6 -1.1 0.2 84 0.9 SE 9 11 5 6 - - 0.0
31/05:30am 3.4 -0.6 0.3 80 1.2 SE 11 13 6 7 - - 0.0
31/05:00am 3.9 -0.4 0.8 80 1.2 SE 13 17 7 9 - - 0.0
31/04:30am 4.1 0.2 1.1 81 1.2 SSE 11 19 6 10 - - 0.0
31/04:00am 4.0 0.0 0.7 79 1.3 S 11 15 6 8 - - 0.0
31/03:30am 4.5 -0.6 0.8 77 1.4 SSE 17 19 9 10 - - 0.0
31/03:00am 3.7 -0.3 0.4 79 1.3 S 11 17 6 9 - - 0.0
31/02:30am 5.1 0.0 0.9 74 1.7 SSE 17 20 9 11 - - 0.0
31/02:00am 4.9 0.2 0.9 75 1.6 SSE 15 20 8 11 - - 0.0
31/01:30am 5.0 -0.6 1.1 76 1.5 SSE 20 26 11 14 - - 0.0
31/01:00am 5.5 0.7 2.7 82 1.2 SE 17 20 9 11 - - 0.0
31/12:30am 5.9 2.0 3.4 84 1.1 SE 13 19 7 10 - - 0.0
31/12:00am 5.9 2.7 3.2 83 1.1 SE 9 15 5 8 - - 0.0
 
Date/Time
EST
Temp
°C
App
Temp
°C
Dew
Point
Rel
Hum
%
Delta-T
°C
Wind Press
QNH
hPa
Press
MSL
hPa
Rain
since 9 am
mm
Dir
 
Spd
km/h
Gust
km/h
Spd
kts
Gust
kts
30/11:30pm 5.9 2.1 1.6 74 1.7 SSE 11 15 6 8 - - 0.0
30/11:00pm 6.1 1.5 1.8 74 1.7 SSE 15 20 8 11 - - 0.0
30/10:30pm 5.2 0.0 2.2 81 1.2 SE 19 24 10 13 - - 0.0
30/10:00pm 4.3 -0.2 2.0 85 0.9 SE 15 17 8 9 - - 0.0
30/09:30pm 5.0 0.2 2.7 85 0.9 SE 17 20 9 11 - - 0.0
30/09:00pm 5.1 0.0 3.1 87 0.8 ESE 19 22 10 12 - - 0.0
30/08:30pm 4.4 -1.1 1.9 84 1.0 ESE 20 26 11 14 - - 0.0
30/08:00pm 5.3 0.4 2.0 79 1.3 ESE 17 20 9 11 - - 0.0
30/07:30pm 6.2 0.7 1.9 74 1.8 ESE 20 26 11 14 - - 0.0
30/07:00pm 6.4 0.9 1.7 72 1.9 ESE 20 26 11 14 - - 0.0
30/06:30pm 6.4 1.1 1.9 73 1.8 ESE 19 24 10 13 - - 0.0
30/06:00pm 7.1 1.6 2.0 70 2.1 ESE 20 24 11 13 - - 0.0
30/05:30pm 8.4 2.5 2.0 64 2.7 ESE 22 28 12 15 - - 0.0
30/05:00pm 9.5 2.5 2.1 60 3.1 ESE 28 39 15 21 - - 0.0
30/04:30pm 10.0 3.1 2.4 59 3.3 ESE 28 35 15 19 - - 0.0
30/04:00pm 10.7 3.8 2.3 56 3.6 ESE 28 39 15 21 - - 0.0
30/03:30pm 11.1 3.5 2.7 56 3.7 ESE 32 37 17 20 - - 0.0
30/03:00pm 11.5 4.3 2.8 55 3.8 ESE 30 35 16 19 - - 0.0
30/02:30pm 11.8 4.6 3.1 55 3.9 ESE 30 39 16 21 - - 0.0
30/02:00pm 11.2 4.1 3.3 58 3.5 ESE 30 37 16 20 - - 0.0
30/01:30pm 11.1 3.6 3.4 59 3.4 ESE 32 39 17 21 - - 0.0
30/01:00pm 11.4 5.6 4.2 61 3.3 ESE 24 35 13 19 - - 0.0
30/12:30pm 11.1 5.9 2.4 55 3.8 SSE 19 24 10 13 - - 0.0
30/12:00pm 10.5 4.9 1.1 52 3.9 SE 20 32 11 17 - - 0.0
30/11:30am 10.7 4.8 2.0 55 3.7 SSE 22 32 12 17 - - 0.0
30/11:00am 10.1 3.8 1.7 56 3.5 SSE 24 32 13 17 - - 0.0
30/10:30am 9.0 2.7 1.7 60 3.0 S 24 33 13 18 - - 0.0
30/10:00am 9.5 4.3 2.6 62 3.0 SSE 19 28 10 15 - - 0.0
30/09:30am 8.6 3.3 1.7 62 2.9 SE 19 24 10 13 - - 0.0
30/09:00am 8.1 1.4 1.5 63 2.7 SE 26 33 14 18 - - 0.0
30/08:30am 7.7 0.6 1.5 65 2.5 SSE 28 43 15 23 - - 0.0
30/08:00am 7.0 0.6 1.1 66 2.4 SSE 24 33 13 18 - - 0.0
30/07:30am 5.8 0.1 0.6 69 2.0 SSE 20 24 11 13 - - 0.0
30/07:00am 5.4 -0.7 0.2 69 2.0 SSE 22 30 12 16 - - 0.0
30/06:30am 4.8 -1.0 -0.2 70 1.9 SSE 20 32 11 17 - - 0.0
30/06:00am 5.1 -1.0 0.1 70 1.9 SSE 22 28 12 15 - - 0.0
30/05:30am 4.8 -1.0 -0.2 70 1.9 SSE 20 32 11 17 - - 0.0
30/05:00am 4.8 -1.4 -0.6 68 2.0 SSE 22 32 12 17 - - 0.0
30/04:40am 5.3 -2.1 -0.7 65 2.3 SE 28 46 15 25 - - 0.0
30/04:30am 5.4 -2.0 -0.6 65 2.3 SE 28 41 15 22 - - 0.0
30/04:00am 5.3 -1.8 -0.9 64 2.3 SSE 26 41 14 22 - - 0.0
30/03:30am 5.5 -2.7 -1.0 63 2.4 SSE 32 43 17 23 - - 0.0
30/03:00am 5.4 -1.6 -0.8 64 2.3 SSE 26 35 14 19 - - 0.0
30/02:30am 5.4 -1.2 -0.6 65 2.3 SE 24 32 13 17 - - 0.0
30/02:00am 5.8 -0.8 -0.7 63 2.5 SSE 24 33 13 18 - - 0.0
30/01:30am 5.8 -0.8 -0.7 63 2.5 SSE 24 37 13 20 - - 0.0
30/01:00am 6.0 0.3 -0.5 63 2.5 S 19 32 10 17 - - 0.0
30/12:30am 6.0 0.1 -0.7 62 2.6 S 20 30 11 16 - - 0.0
30/12:00am 6.1 -1.3 -0.4 63 2.5 SSE 28 39 15 21 - - 0.0
 
Date/Time
EST
Temp
°C
App
Temp
°C
Dew
Point
Rel
Hum
%
Delta-T
°C
Wind Press
QNH
hPa
Press
MSL
hPa
Rain
since 9 am
mm
Dir
 
Spd
km/h
Gust
km/h
Spd
kts
Gust
kts
29/11:30pm 6.4 -0.6 -0.3 62 2.6 SSE 26 39 14 21 - - 0.0
29/11:00pm 6.7 -1.4 -0.1 62 2.7 SSE 32 44 17 24 - - 0.0
29/10:30pm 6.9 -1.3 0.1 62 2.7 SSE 33 46 18 25 - - 0.0
29/10:18pm 7.0 -1.0 0.5 63 2.6 SSE 32 52 17 28 - - 0.0
29/10:00pm 6.8 -0.4 0.7 65 2.4 SSE 28 43 15 23 - - 0.0
29/09:30pm 7.0 -0.1 1.1 66 2.4 SSE 28 43 15 23 - - 0.0
29/09:00pm 7.0 0.2 1.1 66 2.4 SSE 26 37 14 20 - - 0.0
29/08:30pm 7.3 0.2 1.6 67 2.3 SSE 28 39 15 21 - - 0.0
29/08:00pm 7.5 0.0 1.1 64 2.6 SSE 30 44 16 24 - - 0.0
29/07:33pm 7.9 0.0 0.9 61 2.8 SSE 32 52 17 28 - - 0.0
29/07:30pm 7.7 0.2 0.9 62 2.7 SSE 30 44 16 24 - - 0.0
29/07:00pm 8.1 -0.4 1.0 61 2.9 SSE 35 52 19 28 - - 0.0
29/06:39pm 8.1 -0.4 1.0 61 2.9 SSE 35 54 19 29 - - 0.0
29/06:30pm 8.1 -0.4 1.0 61 2.9 SSE 35 50 19 27 - - 0.0
29/06:00pm 8.3 -0.5 1.5 62 2.8 SSE 37 54 20 29 - - 0.0
29/05:31pm 8.3 0.3 1.9 64 2.7 S 33 52 18 28 - - 0.0
29/05:30pm 8.2 -0.1 2.0 65 2.6 S 35 52 19 28 - - 0.0
29/05:15pm 8.4 0.7 2.2 65 2.6 S 32 52 17 28 - - 0.0
29/05:00pm 9.0 1.2 1.7 60 3.0 S 32 48 17 26 - - 0.0
29/04:34pm 9.4 1.0 1.8 59 3.2 SSE 35 54 19 29 - - 0.0
29/04:30pm 9.4 0.7 1.8 59 3.2 SSE 37 54 20 29 - - 0.0
29/04:00pm 10.0 1.7 2.4 59 3.3 S 35 52 19 28 - - 0.0
29/03:30pm 10.8 2.3 3.1 59 3.4 S 37 57 20 31 - - 0.0
29/03:12pm 10.8 2.5 2.4 56 3.6 S 35 56 19 30 - - 0.0
29/03:00pm 10.7 1.7 2.3 56 3.6 S 39 54 21 29 - - 0.0
29/02:30pm 11.3 1.9 2.6 55 3.8 SSE 41 61 22 33 - - 0.0
29/02:00pm 11.5 2.3 3.3 57 3.6 SSE 41 61 22 33 - - 0.0
29/01:30pm 12.1 3.4 3.9 57 3.7 SSE 39 63 21 34 - - 0.0
29/01:16pm 11.6 1.8 2.4 53 4.0 SSE 43 61 23 33 - - 0.0
29/01:00pm 11.7 2.8 3.0 55 3.8 SSE 39 54 21 29 - - 0.0
29/12:31pm 11.9 4.0 4.2 59 3.5 SSE 35 54 19 29 - - 0.0
29/12:30pm 11.9 3.9 3.9 58 3.6 SSE 35 50 19 27 - - 0.0
29/12:02pm 11.4 3.3 3.4 58 3.6 SSE 35 54 19 29 - - 0.0
29/12:00pm 12.0 4.5 4.7 61 3.4 SSE 33 48 18 26 - - 0.0
29/11:40am 11.8 3.6 4.8 62 3.2 SSE 37 56 20 30 - - 0.0
29/11:30am 11.3 1.7 3.6 59 3.4 S 43 57 23 31 - - 0.0
29/11:01am 11.5 4.0 4.3 61 3.3 S 33 54 18 29 - - 0.0
29/11:00am 11.4 4.0 3.9 60 3.4 S 32 48 17 26 - - 0.0
29/10:39am 10.9 3.3 3.9 62 3.1 SSE 33 54 18 29 - - 0.0
29/10:30am 10.8 3.8 4.0 63 3.0 SSE 30 41 16 22 - - 0.0
29/10:24am 11.0 4.4 4.2 63 3.1 SSE 28 46 15 25 - - 0.0
29/10:00am 10.9 3.4 4.4 64 2.9 SSE 33 44 18 24 - - 0.0
29/09:43am 10.9 3.6 4.6 65 2.9 SSE 32 54 17 29 - - 0.0
29/09:41am 10.6 3.2 4.1 64 2.9 SSE 32 54 17 29 - - 0.0
29/09:30am 9.9 3.7 4.5 69 2.4 SE 26 33 14 18 - - 0.0
29/09:00am 9.2 2.6 4.0 70 2.3 SSE 28 37 15 20 - - 0.8
29/08:30am 8.2 1.4 3.1 70 2.2 SSE 28 35 15 19 - - 0.8
29/08:00am 7.1 1.0 2.8 74 1.8 SSE 24 32 13 17 - - 0.8
29/07:30am 6.5 1.8 2.9 78 1.5 S 17 26 9 14 - - 0.8
29/07:00am 6.4 1.0 2.7 77 1.5 SSE 20 32 11 17 - - 0.8
29/06:30am 6.3 -0.2 2.8 78 1.5 SSE 26 37 14 20 - - 0.8
29/06:00am 5.9 -0.6 2.9 81 1.3 SSE 26 41 14 22 - - 0.6
29/05:30am 5.9 -1.1 2.2 77 1.5 SSE 28 37 15 20 - - 0.2
29/05:00am 6.2 -0.9 1.3 71 2.0 SSE 28 39 15 21 - - 0.0
29/04:54am 6.2 -0.9 1.3 71 2.0 SSE 28 37 15 20 - - 0.0
29/04:30am 3.7 1.2 1.4 85 0.9 N 4 9 2 5 - - 0.0
29/04:00am 3.8 -0.1 1.2 83 1.0 NNE 11 15 6 8 - - 0.0
29/03:30am 3.9 0.0 0.9 81 1.2 NE 11 15 6 8 - - 0.0
29/03:00am 4.9 1.1 1.6 79 1.3 ESE 11 20 6 11 - - 0.0
29/02:30am 4.2 -0.3 -0.4 72 1.7 NE 13 20 7 11 - - 0.0
29/02:00am 4.6 1.1 -1.0 67 2.1 NE 7 13 4 7 - - 0.0
29/01:30am 5.8 2.4 -0.7 63 2.5 SSW 7 19 4 10 - - 0.0
29/01:00am 5.8 1.5 -2.0 57 2.9 N 11 17 6 9 - - 0.0
29/12:30am 5.2 0.0 -2.8 56 2.9 NNW 15 24 8 13 - - 0.0
29/12:00am 4.9 1.2 -2.7 58 2.7 N 7 17 4 9 - - 0.0
 
Date/Time
EST
Temp
°C
App
Temp
°C
Dew
Point
Rel
Hum
%
Delta-T
°C
Wind Press
QNH
hPa
Press
MSL
hPa
Rain
since 9 am
mm
Dir
 
Spd
km/h
Gust
km/h
Spd
kts
Gust
kts
28/11:30pm 4.6 -1.6 -2.9 58 2.7 NNE 20 33 11 18 - - 0.0
28/11:00pm 4.0 -0.2 -3.5 58 2.6 SE 9 17 5 9 - - 0.0
28/10:30pm 4.4 0.3 -3.4 57 2.7 W 9 15 5 8 - - 0.0
28/10:00pm 5.3 1.5 -4.0 51 3.2 SE 7 11 4 6 - - 0.0
28/09:30pm 5.3 -0.8 -3.7 52 3.2 W 19 28 10 15 - - 0.0
28/09:00pm 4.5 -0.5 -4.2 53 3.0 ENE 13 17 7 9 - - 0.0
28/08:30pm 4.0 -0.5 -3.5 58 2.6 NNW 11 15 6 8 - - 0.0
28/08:00pm 5.5 1.2 -4.6 48 3.5 SSE 9 15 5 8 - - 0.0
28/07:30pm 4.7 0.5 -4.0 53 3.0 ESE 9 13 5 7 - - 0.0
28/07:00pm 5.4 0.9 -3.4 53 3.1 ESE 11 15 6 8 - - 0.0
28/06:30pm 4.6 1.2 -1.8 63 2.3 ENE 6 11 3 6 - - 0.0
28/06:00pm 6.1 1.3 -2.5 54 3.1 SSW 13 22 7 12 - - 0.0
28/05:30pm 5.7 0.2 -2.1 57 2.9 SSW 17 26 9 14 - - 0.0
28/05:00pm 6.2 1.7 -0.3 63 2.5 SW 13 32 7 17 - - 0.0

Other Formats:

Comma delimited format used in spreadsheet applications
http://www.bom.gov.au/fwo/IDT60801/IDT60801.95969.axf

JavaScript Object Notation format (JSON) in row-major order
http://www.bom.gov.au/fwo/IDT60801/IDT60801.95969.json